createdAt,value
2023-02-24T00:01:25.072Z,24.05
2023-02-24T00:03:48.709Z,26.00
2023-02-24T00:06:13.069Z,24.33
2023-02-24T00:08:36.903Z,24.92
2023-02-24T00:11:01.830Z,23.48
2023-02-24T00:13:25.418Z,22.35
2023-02-24T00:15:58.742Z,22.48
2023-02-24T00:18:22.598Z,23.02
2023-02-24T00:20:46.120Z,20.73
2023-02-24T00:23:09.856Z,22.45
2023-02-24T00:25:33.378Z,21.27
2023-02-24T00:28:01.702Z,20.73
2023-02-24T00:30:25.307Z,20.95
2023-02-24T00:32:49.004Z,20.05
2023-02-24T00:35:12.687Z,21.67
2023-02-24T00:37:36.306Z,20.05
2023-02-24T00:39:59.850Z,18.65
2023-02-24T00:42:23.432Z,16.33
2023-02-24T00:44:49.447Z,14.55
2023-02-24T00:47:14.067Z,13.93
2023-02-24T00:49:42.465Z,11.77
2023-02-24T00:52:08.148Z,10.15
2023-02-24T00:54:32.406Z,9.63
2023-02-24T00:56:58.113Z,8.93
2023-02-24T00:59:24.017Z,9.15
2023-02-24T01:01:50.092Z,7.50
2023-02-24T01:04:15.130Z,8.05
2023-02-24T01:06:43.515Z,8.00
2023-02-24T01:09:12.056Z,6.57
2023-02-24T01:11:55.214Z,7.07
2023-02-24T01:14:23.938Z,6.70
2023-02-24T01:16:50.496Z,6.35
2023-02-24T01:19:14.347Z,5.50
2023-02-24T01:21:38.770Z,5.75
2023-02-24T01:24:02.477Z,5.53
2023-02-24T01:26:26.974Z,5.05
2023-02-24T01:28:50.810Z,3.97
2023-02-24T01:31:18.382Z,4.60
2023-02-24T01:33:45.854Z,4.47
2023-02-24T01:36:14.780Z,3.53
2023-02-24T01:38:39.178Z,4.00
2023-02-24T01:41:05.098Z,3.17
2023-02-24T01:43:28.794Z,3.42
2023-02-24T01:45:55.069Z,3.05
2023-02-24T01:48:19.195Z,3.53
2023-02-24T01:50:45.068Z,3.13
2023-02-24T01:53:10.109Z,2.88
2023-02-24T01:55:39.390Z,3.10
2023-02-24T01:58:10.573Z,3.15
2023-02-24T02:00:38.360Z,3.33
2023-02-24T02:03:08.897Z,2.33
2023-02-24T02:05:33.415Z,3.00
2023-02-24T02:07:58.666Z,2.87
2023-02-24T02:10:23.325Z,2.95
2023-02-24T02:12:47.653Z,2.77
2023-02-24T02:15:14.299Z,2.90
2023-02-24T02:17:48.159Z,3.23
2023-02-24T02:20:49.032Z,3.93
2023-02-24T02:23:58.090Z,3.33
2023-02-24T02:26:54.767Z,2.57
2023-02-24T02:30:06.298Z,3.80
2023-02-24T02:32:54.813Z,3.13
2023-02-24T02:35:23.794Z,3.37
2023-02-24T02:37:57.351Z,3.10
2023-02-24T02:40:28.050Z,2.97
2023-02-24T02:42:58.944Z,3.33
2023-02-24T02:45:29.823Z,2.70
2023-02-24T02:47:59.651Z,3.13
2023-02-24T02:50:29.532Z,2.87
2023-02-24T02:52:58.676Z,2.90
2023-02-24T02:55:30.673Z,2.50
2023-02-24T02:57:58.164Z,3.23
2023-02-24T03:00:29.294Z,3.20
2023-02-24T03:02:57.729Z,2.80
2023-02-24T03:05:29.656Z,3.30
2023-02-24T03:07:56.923Z,2.60
2023-02-24T03:10:27.565Z,3.17
2023-02-24T03:12:56.130Z,3.90
2023-02-24T03:15:24.063Z,3.13
2023-02-24T03:17:50.712Z,2.87
2023-02-24T03:20:22.077Z,2.67
2023-02-24T03:22:51.996Z,3.03
2023-02-24T03:25:16.928Z,3.10
2023-02-24T03:27:47.390Z,3.10
2023-02-24T03:30:18.567Z,2.80
2023-02-24T03:32:55.111Z,2.50
2023-02-24T03:35:23.074Z,3.50
2023-02-24T03:37:49.922Z,2.93
2023-02-24T03:40:16.108Z,3.23
2023-02-24T03:42:44.994Z,2.63
2023-02-24T03:45:10.916Z,2.83
2023-02-24T03:47:35.386Z,3.30
2023-02-24T03:49:59.927Z,3.00
2023-02-24T03:52:35.931Z,3.20
2023-02-24T03:55:29.175Z,3.30
2023-02-24T03:58:08.423Z,3.10
2023-02-24T04:00:44.759Z,2.80
2023-02-24T04:03:23.699Z,2.83
2023-02-24T04:06:00.151Z,2.43
2023-02-24T04:08:26.556Z,3.17
2023-02-24T04:10:59.857Z,2.90
2023-02-24T04:13:37.236Z,3.17
2023-02-24T04:16:18.442Z,3.13
2023-02-24T04:18:42.988Z,3.10
2023-02-24T04:21:08.196Z,3.83
2023-02-24T04:23:38.701Z,3.10
2023-02-24T04:26:04.246Z,3.33
2023-02-24T04:28:30.128Z,3.67
2023-02-24T04:31:01.441Z,3.40
2023-02-24T04:33:25.714Z,3.50
2023-02-24T04:35:51.715Z,4.00
2023-02-24T04:38:16.431Z,3.33
2023-02-24T04:40:40.912Z,3.33
2023-02-24T04:43:05.908Z,3.60
2023-02-24T04:45:32.722Z,4.10
2023-02-24T04:48:01.211Z,3.70
2023-02-24T04:50:26.649Z,4.10
2023-02-24T04:52:55.013Z,3.60
2023-02-24T04:55:19.487Z,4.27
2023-02-24T04:57:45.700Z,3.47
2023-02-24T05:00:20.987Z,3.97
2023-02-24T05:02:44.593Z,3.70
2023-02-24T05:05:10.337Z,3.70
2023-02-24T05:07:33.956Z,3.43
2023-02-24T05:09:58.376Z,3.60
2023-02-24T05:12:22.377Z,3.43
2023-02-24T05:14:49.429Z,4.10
2023-02-24T05:17:16.421Z,4.00
2023-02-24T05:19:57.161Z,3.30
2023-02-24T05:22:22.950Z,3.70
2023-02-24T05:24:48.036Z,3.20
2023-02-24T05:27:11.796Z,2.97
2023-02-24T05:29:36.975Z,3.07
2023-02-24T05:32:01.358Z,2.93
2023-02-24T05:34:26.864Z,2.93
2023-02-24T05:36:50.431Z,1.90
2023-02-24T05:39:19.231Z,3.17
2023-02-24T05:41:44.579Z,2.70
2023-02-24T05:44:13.275Z,2.57
2023-02-24T05:46:39.145Z,2.60
2023-02-24T05:49:08.897Z,2.30
2023-02-24T05:51:36.329Z,2.50
2023-02-24T05:54:04.357Z,2.30
2023-02-24T05:56:28.268Z,2.27
2023-02-24T05:59:01.878Z,2.40
2023-02-24T06:01:30.220Z,2.10
2023-02-24T06:03:54.410Z,2.20
2023-02-24T06:06:19.234Z,2.30
2023-02-24T06:08:50.191Z,2.30
2023-02-24T06:11:14.009Z,2.00
2023-02-24T06:13:38.317Z,1.97
2023-02-24T06:16:01.988Z,2.70
2023-02-24T06:18:25.720Z,2.23
2023-02-24T06:20:51.337Z,2.00
2023-02-24T06:23:16.960Z,2.30
2023-02-24T06:25:42.143Z,1.60
2023-02-24T06:28:06.588Z,2.20
2023-02-24T06:30:30.264Z,1.73
2023-02-24T06:32:54.290Z,2.10
2023-02-24T06:35:18.262Z,1.83
2023-02-24T06:37:42.218Z,2.40
2023-02-24T06:40:15.723Z,2.47
2023-02-24T06:42:40.693Z,1.97
2023-02-24T06:45:07.013Z,1.60
2023-02-24T06:47:32.661Z,1.80
2023-02-24T06:49:56.380Z,2.10
2023-02-24T06:52:19.932Z,1.83
2023-02-24T06:54:44.766Z,1.17
2023-02-24T06:57:09.914Z,2.03
2023-02-24T06:59:34.833Z,2.00
2023-02-24T07:02:01.922Z,2.13
2023-02-24T07:04:28.373Z,1.80
2023-02-24T07:06:56.072Z,1.73
2023-02-24T07:09:23.365Z,1.30
2023-02-24T07:11:52.499Z,1.70
2023-02-24T07:14:16.411Z,2.40
2023-02-24T07:16:45.458Z,2.10
2023-02-24T07:19:14.001Z,2.00
2023-02-24T07:21:39.873Z,2.27
2023-02-24T07:24:04.104Z,1.97
2023-02-24T07:26:30.424Z,2.27
2023-02-24T07:28:56.770Z,2.00
2023-02-24T07:31:24.193Z,1.97
2023-02-24T07:33:51.247Z,2.20
2023-02-24T07:36:18.311Z,2.20
2023-02-24T07:38:42.522Z,1.70
2023-02-24T07:41:08.102Z,1.80
2023-02-24T07:43:31.751Z,2.17
2023-02-24T07:45:55.391Z,2.10
2023-02-24T07:48:18.962Z,2.27
2023-02-24T07:50:43.871Z,2.80
2023-02-24T07:53:07.749Z,1.93
2023-02-24T07:55:31.629Z,2.40
2023-02-24T07:57:55.235Z,2.00
2023-02-24T08:00:20.229Z,2.03
2023-02-24T08:02:45.132Z,2.57
2023-02-24T08:05:09.445Z,2.90
2023-02-24T08:07:36.197Z,2.67
2023-02-24T08:10:14.407Z,2.40
2023-02-24T08:12:43.479Z,2.17
2023-02-24T08:15:17.296Z,2.60
2023-02-24T08:17:41.069Z,2.30
2023-02-24T08:20:18.771Z,2.57
2023-02-24T08:22:47.060Z,2.47
2023-02-24T08:25:18.487Z,2.80
2023-02-24T08:27:42.362Z,2.17
2023-02-24T08:30:08.307Z,2.50
2023-02-24T08:32:37.793Z,2.27
2023-02-24T08:35:04.932Z,2.23
2023-02-24T08:37:28.813Z,2.37
2023-02-24T08:39:56.496Z,2.83
2023-02-24T08:42:20.060Z,2.30
2023-02-24T08:44:45.952Z,1.80
2023-02-24T08:47:13.734Z,3.10
2023-02-24T08:49:39.547Z,2.47
2023-02-24T08:52:06.706Z,2.70
2023-02-24T08:54:32.141Z,2.77
2023-02-24T08:56:58.071Z,2.70
2023-02-24T08:59:37.787Z,2.90
2023-02-24T09:02:18.381Z,3.27
2023-02-24T09:04:44.839Z,2.77
2023-02-24T09:07:15.400Z,3.60
2023-02-24T09:09:42.259Z,3.17
2023-02-24T09:12:07.993Z,2.60
2023-02-24T09:14:36.571Z,2.90
2023-02-24T09:17:04.128Z,2.83
2023-02-24T09:19:40.483Z,2.73
2023-02-24T09:22:21.216Z,2.83
2023-02-24T09:24:46.288Z,2.63
2023-02-24T09:27:17.264Z,2.80
2023-02-24T09:29:49.341Z,3.60
2023-02-24T09:32:14.983Z,3.10
2023-02-24T09:34:44.148Z,2.97
2023-02-24T09:37:24.823Z,2.70
2023-02-24T09:40:05.177Z,2.90
2023-02-24T09:42:46.376Z,3.13
2023-02-24T09:45:19.301Z,2.63
2023-02-24T09:47:57.029Z,2.40
2023-02-24T09:51:02.703Z,2.17
2023-02-24T09:53:29.542Z,3.17
2023-02-24T09:56:03.995Z,2.40
2023-02-24T09:58:47.756Z,2.47
2023-02-24T10:01:34.365Z,2.07
2023-02-24T10:04:18.667Z,1.50
2023-02-24T10:06:46.609Z,2.50
2023-02-24T10:09:21.706Z,1.87
2023-02-24T10:11:54.622Z,2.20
2023-02-24T10:14:19.678Z,2.80
2023-02-24T10:16:46.392Z,2.30
2023-02-24T10:19:24.610Z,1.90
2023-02-24T10:22:03.045Z,2.13
2023-02-24T10:24:34.384Z,2.70
2023-02-24T10:27:08.415Z,2.90
2023-02-24T10:30:01.266Z,2.80
2023-02-24T10:32:37.383Z,1.77
2023-02-24T10:35:02.382Z,1.73
2023-02-24T10:37:29.522Z,1.40
2023-02-24T10:39:59.513Z,2.10
2023-02-24T10:42:31.717Z,1.95
2023-02-24T10:45:18.024Z,1.77
2023-02-24T10:47:44.549Z,2.23
2023-02-24T10:50:20.494Z,2.13
2023-02-24T10:53:11.234Z,1.90
2023-02-24T10:55:54.297Z,1.83
2023-02-24T10:58:37.640Z,2.70
2023-02-24T11:01:18.596Z,2.07
2023-02-24T11:04:01.215Z,2.03
2023-02-24T11:06:52.648Z,1.73
2023-02-24T11:09:32.256Z,2.00
2023-02-24T11:12:14.196Z,2.20
2023-02-24T11:15:09.259Z,1.90
2023-02-24T11:17:36.894Z,1.87
2023-02-24T11:20:10.875Z,2.00
2023-02-24T11:22:39.476Z,2.23
2023-02-24T11:25:10.266Z,2.60
2023-02-24T11:27:34.082Z,2.27
2023-02-24T11:30:22.052Z,2.78
2023-02-24T11:33:17.514Z,2.20
2023-02-24T11:35:51.448Z,2.80
2023-02-24T11:38:29.508Z,3.33
2023-02-24T11:41:05.286Z,1.90
2023-02-24T11:43:30.729Z,1.87
2023-02-24T11:46:00.630Z,2.77
2023-02-24T11:48:32.224Z,2.90
2023-02-24T11:51:01.175Z,2.40
2023-02-24T11:53:33.438Z,2.90
2023-02-24T11:56:03.876Z,3.10
2023-02-24T11:58:37.468Z,2.67
2023-02-24T12:01:10.453Z,2.80
2023-02-24T12:03:43.909Z,2.93
2023-02-24T12:06:18.496Z,1.93
2023-02-24T12:08:45.786Z,2.70
2023-02-24T12:11:17.339Z,3.03
2023-02-24T12:13:47.260Z,3.07
2023-02-24T12:16:16.979Z,2.40
2023-02-24T12:18:48.173Z,2.50
2023-02-24T12:21:21.327Z,4.00
2023-02-24T12:23:48.343Z,3.27
2023-02-24T12:26:20.096Z,2.80
2023-02-24T12:29:09.807Z,1.83
2023-02-24T12:31:53.311Z,1.93
2023-02-24T12:34:32.723Z,1.83
2023-02-24T12:37:31.344Z,2.77
2023-02-24T12:40:11.727Z,2.50
2023-02-24T12:42:44.039Z,2.30
2023-02-24T12:45:18.924Z,2.40
2023-02-24T12:47:57.315Z,2.60
2023-02-24T12:50:35.996Z,2.10
2023-02-24T12:53:10.891Z,2.73
2023-02-24T12:55:45.997Z,3.07
2023-02-24T12:58:14.544Z,2.93
2023-02-24T13:00:51.026Z,2.33
2023-02-24T13:03:29.919Z,2.30
2023-02-24T13:06:06.160Z,2.20
2023-02-24T13:08:45.092Z,1.67
2023-02-24T13:11:16.547Z,2.37
2023-02-24T13:13:50.539Z,2.03
2023-02-24T13:16:14.421Z,2.00
2023-02-24T13:18:39.634Z,2.07
2023-02-24T13:21:10.287Z,2.13
2023-02-24T13:23:34.422Z,2.13
2023-02-24T13:25:58.074Z,2.20
2023-02-24T13:28:27.061Z,1.10
2023-02-24T13:31:00.929Z,2.20
2023-02-24T13:33:32.117Z,2.90
2023-02-24T13:36:15.494Z,3.00
2023-02-24T13:38:43.311Z,2.57
2023-02-24T13:41:24.405Z,2.70
2023-02-24T13:43:57.968Z,9.00
2023-02-24T13:46:22.039Z,4.87
2023-02-24T13:48:59.308Z,3.30
2023-02-24T13:51:53.561Z,1.90
2023-02-24T13:55:01.387Z,2.80
2023-02-24T13:57:48.913Z,2.00
2023-02-24T14:00:26.428Z,2.30
2023-02-24T14:02:53.064Z,2.70
2023-02-24T14:05:24.477Z,2.77
2023-02-24T14:07:51.605Z,2.87
2023-02-24T14:10:19.361Z,2.70
2023-02-24T14:12:44.735Z,2.63
2023-02-24T14:15:16.375Z,2.87
2023-02-24T14:17:39.954Z,2.47
2023-02-24T14:20:15.788Z,2.03
2023-02-24T14:22:46.003Z,10.60
2023-02-24T14:25:13.700Z,4.03
2023-02-24T14:27:39.283Z,5.67
2023-02-24T14:30:02.867Z,8.73
2023-02-24T14:32:28.840Z,9.67
2023-02-24T14:34:53.851Z,23.93
2023-02-24T14:37:17.787Z,5.27
2023-02-24T14:39:53.000Z,17.03
2023-02-24T14:42:17.973Z,6.27
2023-02-24T14:44:47.047Z,5.10
2023-02-24T14:47:14.435Z,5.60
2023-02-24T14:49:38.146Z,5.70
2023-02-24T14:52:07.108Z,6.03
2023-02-24T14:54:45.699Z,5.60
2023-02-24T14:57:14.379Z,6.60
2023-02-24T14:59:41.762Z,5.73
2023-02-24T15:02:14.987Z,9.40
2023-02-24T15:04:43.713Z,4.77
2023-02-24T15:07:17.396Z,9.20
2023-02-24T15:09:44.543Z,4.63
2023-02-24T15:12:23.412Z,3.63
2023-02-24T15:14:54.306Z,4.00
2023-02-24T15:17:21.838Z,3.33
2023-02-24T15:19:49.185Z,3.77
2023-02-24T15:22:26.769Z,3.73
2023-02-24T15:24:51.072Z,2.40
2023-02-24T15:27:28.150Z,3.33
2023-02-24T15:30:10.085Z,2.87
2023-02-24T15:32:37.679Z,3.77
2023-02-24T15:35:02.137Z,4.13
2023-02-24T15:37:28.725Z,3.23
2023-02-24T15:40:03.496Z,3.80
2023-02-24T15:42:31.822Z,3.67
2023-02-24T15:44:57.950Z,5.23
2023-02-24T15:47:28.365Z,13.07
2023-02-24T15:49:52.159Z,9.03
2023-02-24T15:52:16.169Z,7.80
2023-02-24T15:54:42.531Z,7.17
2023-02-24T15:57:07.328Z,7.53
2023-02-24T15:59:31.506Z,5.90
2023-02-24T16:01:55.583Z,4.07
2023-02-24T16:04:21.846Z,6.20
2023-02-24T16:06:54.622Z,5.20
2023-02-24T16:09:32.326Z,4.87
2023-02-24T16:11:56.228Z,4.60
2023-02-24T16:14:20.110Z,4.67
2023-02-24T16:16:44.327Z,5.60
2023-02-24T16:19:08.652Z,5.33
2023-02-24T16:21:34.148Z,5.57
2023-02-24T16:23:57.735Z,9.10
2023-02-24T16:26:24.160Z,31.77
2023-02-24T16:28:54.633Z,20.77
2023-02-24T16:31:18.588Z,16.70
2023-02-24T16:33:54.042Z,13.40
2023-02-24T16:36:21.458Z,9.93
2023-02-24T16:38:50.984Z,11.93
2023-02-24T16:41:15.001Z,5.63
2023-02-24T16:43:38.613Z,6.73
2023-02-24T16:46:04.964Z,6.93
2023-02-24T16:48:30.903Z,7.50
2023-02-24T16:50:54.935Z,6.43
2023-02-24T16:53:22.637Z,7.57
2023-02-24T16:55:48.632Z,6.70
2023-02-24T16:58:13.146Z,6.77
2023-02-24T17:00:37.382Z,5.53
2023-02-24T17:03:01.868Z,7.47
2023-02-24T17:05:27.554Z,14.27
2023-02-24T17:07:55.389Z,12.93
2023-02-24T17:10:20.422Z,14.63
2023-02-24T17:12:45.820Z,18.43
2023-02-24T17:15:13.655Z,14.43
2023-02-24T17:17:37.515Z,9.80
2023-02-24T17:20:01.190Z,8.73
2023-02-24T17:22:24.793Z,8.93
2023-02-24T17:24:48.481Z,13.10
2023-02-24T17:27:12.946Z,21.90
2023-02-24T17:29:38.005Z,18.30
2023-02-24T17:32:01.649Z,30.00
2023-02-24T17:34:25.417Z,19.77
2023-02-24T17:36:49.050Z,12.63
2023-02-24T17:39:14.021Z,10.90
2023-02-24T17:41:37.570Z,8.93
2023-02-24T17:44:01.339Z,14.23
2023-02-24T17:46:26.754Z,12.37
2023-02-24T17:48:50.553Z,15.70
2023-02-24T17:51:15.460Z,12.47
2023-02-24T17:53:39.048Z,14.33
2023-02-24T17:56:04.400Z,11.93
2023-02-24T17:58:28.031Z,16.77
2023-02-24T18:00:51.580Z,14.70
2023-02-24T18:03:16.642Z,12.30
2023-02-24T18:05:40.194Z,14.60
2023-02-24T18:08:03.798Z,15.63
2023-02-24T18:10:27.893Z,15.90
2023-02-24T18:12:51.466Z,15.43
2023-02-24T18:15:15.283Z,17.87
2023-02-24T18:17:39.736Z,17.33
2023-02-24T18:20:05.289Z,14.87
2023-02-24T18:22:28.998Z,13.13
2023-02-24T18:24:53.031Z,19.30
2023-02-24T18:27:16.897Z,17.63
2023-02-24T18:29:40.494Z,14.93
2023-02-24T18:32:05.069Z,19.53
2023-02-24T18:34:29.058Z,15.13
2023-02-24T18:36:54.143Z,14.63
2023-02-24T18:39:17.780Z,17.07
2023-02-24T18:41:41.934Z,16.97
2023-02-24T18:44:05.854Z,18.17
2023-02-24T18:46:29.541Z,16.73
2023-02-24T18:48:53.507Z,24.93
2023-02-24T18:51:20.492Z,17.40
2023-02-24T18:53:45.501Z,18.37
2023-02-24T18:56:11.919Z,17.50
2023-02-24T18:58:37.100Z,15.10
2023-02-24T19:01:01.668Z,17.30
2023-02-24T19:03:25.931Z,14.50
2023-02-24T19:05:49.533Z,17.03
2023-02-24T19:08:13.126Z,17.87
2023-02-24T19:10:40.238Z,17.97
2023-02-24T19:13:05.144Z,19.13
2023-02-24T19:15:30.213Z,19.23
2023-02-24T19:17:53.807Z,17.57
2023-02-24T19:20:17.576Z,18.60
2023-02-24T19:22:41.102Z,15.47
2023-02-24T19:25:05.093Z,18.07
2023-02-24T19:27:30.050Z,18.27
2023-02-24T19:29:54.474Z,18.43
2023-02-24T19:32:18.241Z,18.70
2023-02-24T19:34:42.845Z,20.47
2023-02-24T19:37:06.399Z,20.40
2023-02-24T19:39:30.034Z,13.63
2023-02-24T19:41:54.827Z,19.50
2023-02-24T19:44:19.902Z,21.47
2023-02-24T19:46:43.523Z,20.70
2023-02-24T19:49:07.311Z,20.90
2023-02-24T19:51:31.505Z,19.80
2023-02-24T19:53:56.929Z,20.90
2023-02-24T19:56:24.662Z,21.63
2023-02-24T19:58:48.738Z,20.43
2023-02-24T20:01:15.214Z,21.47
2023-02-24T20:03:40.619Z,23.13
2023-02-24T20:06:04.370Z,22.30
2023-02-24T20:08:28.019Z,16.50
2023-02-24T20:11:01.084Z,20.07
2023-02-24T20:13:24.679Z,20.37
2023-02-24T20:15:48.309Z,15.07
2023-02-24T20:18:13.379Z,21.70
2023-02-24T20:20:37.531Z,21.13
2023-02-24T20:23:01.145Z,22.43
2023-02-24T20:25:24.792Z,20.17
2023-02-24T20:27:48.417Z,20.90
2023-02-24T20:30:13.861Z,18.40
2023-02-24T20:32:38.874Z,19.27
2023-02-24T20:35:04.053Z,21.37
2023-02-24T20:37:27.746Z,20.07
2023-02-24T20:39:53.370Z,18.77
2023-02-24T20:42:17.525Z,25.93
2023-02-24T20:44:41.298Z,27.47
2023-02-24T20:47:05.078Z,24.27
2023-02-24T20:49:28.639Z,20.63
2023-02-24T20:51:53.824Z,14.53
2023-02-24T20:54:17.840Z,19.60
2023-02-24T20:56:44.550Z,20.20
2023-02-24T20:59:12.858Z,21.27
2023-02-24T21:01:37.066Z,19.67
2023-02-24T21:04:01.575Z,19.20
2023-02-24T21:06:26.016Z,20.37
2023-02-24T21:08:53.242Z,23.07
2023-02-24T21:11:17.662Z,20.80
2023-02-24T21:13:43.387Z,20.73
2023-02-24T21:16:10.005Z,22.90
2023-02-24T21:18:34.809Z,20.40
2023-02-24T21:20:58.473Z,21.70
2023-02-24T21:23:22.390Z,21.50
2023-02-24T21:25:47.356Z,18.40
2023-02-24T21:28:11.402Z,18.70
2023-02-24T21:30:35.049Z,18.93
2023-02-24T21:32:58.668Z,20.63
2023-02-24T21:35:22.333Z,19.63
2023-02-24T21:37:45.840Z,19.03
2023-02-24T21:40:12.239Z,18.40
2023-02-24T21:42:37.156Z,20.20
2023-02-24T21:45:02.479Z,19.47
2023-02-24T21:47:26.124Z,19.93
2023-02-24T21:49:49.797Z,18.43
2023-02-24T21:52:13.479Z,18.97
2023-02-24T21:54:37.619Z,18.63
2023-02-24T21:57:01.237Z,18.27
2023-02-24T21:59:26.282Z,17.97
2023-02-24T22:01:50.135Z,18.90
2023-02-24T22:04:16.851Z,18.23
2023-02-24T22:06:42.850Z,16.07
2023-02-24T22:09:09.197Z,19.10
2023-02-24T22:11:35.837Z,19.00
2023-02-24T22:13:59.573Z,18.97
2023-02-24T22:16:26.719Z,17.93
2023-02-24T22:18:52.494Z,16.43
2023-02-24T22:21:20.106Z,16.30
2023-02-24T22:23:44.062Z,14.20
2023-02-24T22:26:11.667Z,13.10
2023-02-24T22:28:37.476Z,12.00
2023-02-24T22:31:02.532Z,11.97
2023-02-24T22:33:27.981Z,11.23
2023-02-24T22:35:51.762Z,11.37
2023-02-24T22:38:15.332Z,10.77
2023-02-24T22:40:39.323Z,10.77
2023-02-24T22:43:05.104Z,9.80
2023-02-24T22:45:28.645Z,8.97
2023-02-24T22:47:52.337Z,9.97
2023-02-24T22:50:17.950Z,9.17
2023-02-24T22:52:41.967Z,9.27
2023-02-24T22:55:05.952Z,9.03
2023-02-24T22:57:32.716Z,9.53
2023-02-24T22:59:56.312Z,8.40
2023-02-24T23:02:19.933Z,8.40
2023-02-24T23:04:44.071Z,6.33
2023-02-24T23:07:10.017Z,8.60
2023-02-24T23:09:33.512Z,8.23
2023-02-24T23:11:57.147Z,7.23
2023-02-24T23:14:20.889Z,6.70
2023-02-24T23:16:47.337Z,6.37
2023-02-24T23:19:17.572Z,6.47
2023-02-24T23:21:43.819Z,6.33
2023-02-24T23:24:11.159Z,5.70
2023-02-24T23:26:38.272Z,5.20
2023-02-24T23:29:02.361Z,5.07
2023-02-24T23:31:26.238Z,4.23
2023-02-24T23:33:50.490Z,4.00
2023-02-24T23:36:14.068Z,3.23
2023-02-24T23:38:37.661Z,3.83
2023-02-24T23:41:02.735Z,4.30
2023-02-24T23:43:26.328Z,4.03
2023-02-24T23:45:49.979Z,4.63
2023-02-24T23:48:15.716Z,3.10
2023-02-24T23:50:40.054Z,3.37
2023-02-24T23:53:03.998Z,3.90
2023-02-24T23:55:30.629Z,2.60
2023-02-24T23:57:55.889Z,4.07
